createdAt,value
2023-04-11T00:00:32.419Z,10.44
2023-04-11T00:01:32.519Z,10.38
2023-04-11T00:02:32.484Z,10.43
2023-04-11T00:03:32.457Z,10.42
2023-04-11T00:04:32.422Z,10.38
2023-04-11T00:05:32.377Z,10.39
2023-04-11T00:06:32.357Z,10.39
2023-04-11T00:07:32.326Z,10.42
2023-04-11T00:08:32.294Z,10.44
2023-04-11T00:09:32.278Z,10.44
2023-04-11T00:10:32.322Z,10.43
2023-04-11T00:11:32.244Z,10.42
2023-04-11T00:12:32.271Z,10.43
2023-04-11T00:13:32.227Z,10.46
2023-04-11T00:14:32.260Z,10.46
2023-04-11T00:15:32.224Z,10.46
2023-04-11T00:16:32.246Z,10.46
2023-04-11T00:17:32.222Z,10.47
2023-04-11T00:18:32.176Z,10.46
2023-04-11T00:19:32.194Z,10.46
2023-04-11T00:20:32.171Z,10.47
2023-04-11T00:21:32.206Z,10.52
2023-04-11T00:22:32.194Z,10.54
2023-04-11T00:23:32.119Z,10.51
2023-04-11T00:24:32.158Z,10.46
2023-04-11T00:25:32.124Z,10.42
2023-04-11T00:26:32.168Z,10.35
2023-04-11T00:27:32.101Z,10.34
2023-04-11T00:28:32.083Z,10.36
2023-04-11T00:29:32.097Z,10.36
2023-04-11T00:30:32.071Z,10.42
2023-04-11T00:31:32.093Z,10.43
2023-04-11T00:32:32.101Z,10.46
2023-04-11T00:33:32.055Z,10.38
2023-04-11T00:34:32.006Z,10.32
2023-04-11T00:35:32.097Z,10.32
2023-04-11T00:36:32.108Z,10.31
2023-04-11T00:37:31.984Z,10.29
2023-04-11T00:38:31.951Z,10.26
2023-04-11T00:39:32.601Z,10.26
2023-04-11T00:40:31.928Z,10.26
2023-04-11T00:41:32.641Z,10.25
2023-04-11T00:42:31.890Z,10.28
2023-04-11T00:43:31.885Z,10.26
2023-04-11T00:44:31.950Z,10.28
2023-04-11T00:45:31.932Z,10.31
2023-04-11T00:46:31.883Z,10.38
2023-04-11T00:47:31.957Z,10.43
2023-04-11T00:48:31.829Z,10.44
2023-04-11T00:49:31.853Z,10.49
2023-04-11T00:50:32.603Z,10.51
2023-04-11T00:51:31.883Z,10.51
2023-04-11T00:52:31.776Z,10.54
2023-04-11T00:53:31.900Z,10.52
2023-04-11T00:54:31.866Z,10.47
2023-04-11T00:55:32.721Z,10.49
2023-04-11T00:56:32.341Z,10.43
2023-04-11T00:57:31.944Z,10.36
2023-04-11T00:58:31.713Z,10.39
2023-04-11T00:59:31.774Z,10.39
2023-04-11T01:00:31.690Z,10.38
2023-04-11T01:01:31.717Z,10.38
2023-04-11T01:02:31.731Z,10.39
2023-04-11T01:03:31.959Z,10.39
2023-04-11T01:04:31.637Z,10.42
2023-04-11T01:05:31.693Z,10.42
2023-04-11T01:06:31.627Z,10.44
2023-04-11T01:07:31.612Z,10.46
2023-04-11T01:08:31.588Z,10.43
2023-04-11T01:09:31.588Z,10.44
2023-04-11T01:10:31.570Z,10.51
2023-04-11T01:11:31.589Z,10.51
2023-04-11T01:12:31.548Z,10.51
2023-04-11T01:13:31.542Z,10.47
2023-04-11T01:14:31.532Z,10.49
2023-04-11T01:15:31.547Z,10.47
2023-04-11T01:16:31.526Z,10.52
2023-04-11T01:17:31.552Z,10.47
2023-04-11T01:18:31.477Z,10.46
2023-04-11T01:19:31.473Z,10.46
2023-04-11T01:20:31.458Z,10.39
2023-04-11T01:21:31.471Z,10.39
2023-04-11T01:22:31.448Z,10.35
2023-04-11T01:23:31.586Z,10.32
2023-04-11T01:24:31.413Z,10.29
2023-04-11T01:25:31.430Z,10.28
2023-04-11T01:26:31.411Z,10.28
2023-04-11T01:27:31.386Z,10.22
2023-04-11T01:28:31.376Z,10.22
2023-04-11T01:29:31.357Z,10.20
2023-04-11T01:30:31.374Z,10.20
2023-04-11T01:31:31.359Z,10.18
2023-04-11T01:32:31.365Z,10.17
2023-04-11T01:33:31.364Z,10.10
2023-04-11T01:34:31.323Z,10.04
2023-04-11T01:35:31.346Z,10.06
2023-04-11T01:36:31.320Z,10.04
2023-04-11T01:37:31.273Z,10.01
2023-04-11T01:38:31.255Z,9.99
2023-04-11T01:39:31.256Z,9.96
2023-04-11T01:40:31.232Z,9.96
2023-04-11T01:41:31.226Z,9.95
2023-04-11T01:42:31.238Z,9.89
2023-04-11T01:43:31.208Z,9.89
2023-04-11T01:44:31.192Z,9.89
2023-04-11T01:45:31.176Z,9.88
2023-04-11T01:46:31.227Z,9.88
2023-04-11T01:47:31.210Z,9.86
2023-04-11T01:48:31.243Z,9.88
2023-04-11T01:49:31.145Z,9.83
2023-04-11T01:50:31.121Z,9.83
2023-04-11T01:51:31.119Z,9.83
2023-04-11T01:52:31.093Z,9.83
2023-04-11T01:53:31.112Z,9.83
2023-04-11T01:54:31.077Z,9.81
2023-04-11T01:55:31.064Z,9.81
2023-04-11T01:56:31.081Z,9.86
2023-04-11T01:57:31.071Z,9.86
2023-04-11T01:58:31.030Z,9.83
2023-04-11T01:59:31.041Z,9.85
2023-04-11T02:00:31.005Z,9.86
2023-04-11T02:01:31.043Z,9.92
2023-04-11T02:02:31.045Z,9.89
2023-04-11T02:03:30.998Z,9.92
2023-04-11T02:04:30.980Z,9.92
2023-04-11T02:05:30.952Z,9.93
2023-04-11T02:06:30.940Z,9.95
2023-04-11T02:07:30.934Z,9.99
2023-04-11T02:08:30.933Z,9.98
2023-04-11T02:09:30.904Z,9.95
2023-04-11T02:10:30.919Z,9.95
2023-04-11T02:11:30.901Z,9.92
2023-04-11T02:12:30.875Z,9.88
2023-04-11T02:13:30.881Z,9.85
2023-04-11T02:14:30.840Z,9.81
2023-04-11T02:15:30.939Z,9.80
2023-04-11T02:16:30.842Z,9.78
2023-04-11T02:17:30.855Z,9.78
2023-04-11T02:18:30.799Z,9.78
2023-04-11T02:19:30.800Z,9.83
2023-04-11T02:20:30.776Z,9.81
2023-04-11T02:21:30.805Z,9.81
2023-04-11T02:22:30.761Z,9.78
2023-04-11T02:23:30.755Z,9.73
2023-04-11T02:24:30.738Z,9.70
2023-04-11T02:25:30.743Z,9.70
2023-04-11T02:26:30.704Z,9.68
2023-04-11T02:27:30.731Z,9.60
2023-04-11T02:28:30.689Z,9.58
2023-04-11T02:29:30.678Z,9.52
2023-04-11T02:30:30.658Z,9.49
2023-04-11T02:31:30.717Z,9.41
2023-04-11T02:32:30.684Z,9.38
2023-04-11T02:33:30.633Z,9.31
2023-04-11T02:34:30.626Z,9.32
2023-04-11T02:35:30.641Z,9.30
2023-04-11T02:36:30.601Z,9.26
2023-04-11T02:37:30.615Z,9.24
2023-04-11T02:38:30.598Z,9.24
2023-04-11T02:39:30.563Z,9.32
2023-04-11T02:40:30.552Z,9.26
2023-04-11T02:41:30.541Z,9.32
2023-04-11T02:42:30.533Z,9.34
2023-04-11T02:43:30.524Z,9.34
2023-04-11T02:44:30.524Z,9.35
2023-04-11T02:45:30.496Z,9.40
2023-04-11T02:46:30.493Z,9.41
2023-04-11T02:47:30.503Z,9.45
2023-04-11T02:48:30.464Z,9.44
2023-04-11T02:49:30.491Z,9.48
2023-04-11T02:50:30.427Z,9.44
2023-04-11T02:51:30.433Z,9.45
2023-04-11T02:52:30.453Z,9.44
2023-04-11T02:53:30.409Z,9.42
2023-04-11T02:54:30.399Z,9.40
2023-04-11T02:55:30.411Z,9.40
2023-04-11T02:56:30.365Z,9.44
2023-04-11T02:57:30.367Z,9.45
2023-04-11T02:58:30.352Z,9.48
2023-04-11T02:59:30.337Z,9.49
2023-04-11T03:00:30.349Z,9.52
2023-04-11T03:01:30.337Z,9.49
2023-04-11T03:02:30.511Z,9.49
2023-04-11T03:03:30.320Z,9.48
2023-04-11T03:04:30.306Z,9.48
2023-04-11T03:05:30.281Z,9.48
2023-04-11T03:06:30.266Z,9.49
2023-04-11T03:07:30.248Z,9.49
2023-04-11T03:08:30.230Z,9.49
2023-04-11T03:09:30.221Z,9.45
2023-04-11T03:10:30.209Z,9.42
2023-04-11T03:11:30.226Z,9.45
2023-04-11T03:12:30.179Z,9.42
2023-04-11T03:13:30.178Z,9.44
2023-04-11T03:14:30.168Z,9.48
2023-04-11T03:15:30.166Z,9.45
2023-04-11T03:16:30.215Z,9.48
2023-04-11T03:17:30.182Z,9.41
2023-04-11T03:18:30.114Z,9.40
2023-04-11T03:19:30.142Z,9.40
2023-04-11T03:20:30.095Z,9.38
2023-04-11T03:21:30.086Z,9.38
2023-04-11T03:22:30.097Z,9.35
2023-04-11T03:23:30.070Z,9.40
2023-04-11T03:24:30.049Z,9.41
2023-04-11T03:25:30.038Z,9.40
2023-04-11T03:26:30.042Z,9.41
2023-04-11T03:27:30.026Z,9.37
2023-04-11T03:28:30.080Z,9.35
2023-04-11T03:29:29.995Z,9.34
2023-04-11T03:30:29.988Z,9.31
2023-04-11T03:31:29.995Z,9.32
2023-04-11T03:32:30.073Z,9.30
2023-04-11T03:33:29.955Z,9.23
2023-04-11T03:34:29.991Z,9.24
2023-04-11T03:35:29.949Z,9.24
2023-04-11T03:36:29.947Z,9.27
2023-04-11T03:37:29.909Z,9.30
2023-04-11T03:38:29.898Z,9.31
2023-04-11T03:39:29.892Z,9.30
2023-04-11T03:40:29.910Z,9.26
2023-04-11T03:41:29.867Z,9.26
2023-04-11T03:42:29.848Z,9.26
2023-04-11T03:43:29.855Z,9.20
2023-04-11T03:44:29.832Z,9.23
2023-04-11T03:45:29.825Z,9.24
2023-04-11T03:46:29.879Z,9.23
2023-04-11T03:47:29.840Z,9.24
2023-04-11T03:48:29.789Z,9.26
2023-04-11T03:49:29.769Z,9.27
2023-04-11T03:50:29.770Z,9.26
2023-04-11T03:51:29.762Z,9.31
2023-04-11T03:52:29.767Z,9.31
2023-04-11T03:53:29.726Z,9.27
2023-04-11T03:54:29.714Z,9.26
2023-04-11T03:55:29.719Z,9.26
2023-04-11T03:56:29.687Z,9.32
2023-04-11T03:57:29.717Z,9.32
2023-04-11T03:58:29.665Z,9.35
2023-04-11T03:59:29.671Z,9.31
2023-04-11T04:00:29.645Z,9.32
2023-04-11T04:01:29.644Z,9.35
2023-04-11T04:02:29.746Z,9.35
2023-04-11T04:03:29.919Z,9.35
2023-04-11T04:04:29.648Z,9.40
2023-04-11T04:05:29.594Z,9.41
2023-04-11T04:06:29.573Z,9.42
2023-04-11T04:07:29.575Z,9.42
2023-04-11T04:08:30.097Z,9.42
2023-04-11T04:09:29.541Z,9.41
2023-04-11T04:10:29.531Z,9.38
2023-04-11T04:11:29.529Z,9.40
2023-04-11T04:12:29.502Z,9.38
2023-04-11T04:13:29.498Z,9.37
2023-04-11T04:14:29.519Z,9.37
2023-04-11T04:15:29.476Z,9.34
2023-04-11T04:16:29.497Z,9.35
2023-04-11T04:17:29.505Z,9.34
2023-04-11T04:18:29.440Z,9.35
2023-04-11T04:19:29.463Z,9.35
2023-04-11T04:20:29.418Z,9.35
2023-04-11T04:21:29.404Z,9.34
2023-04-11T04:22:29.387Z,9.37
2023-04-11T04:23:29.387Z,9.35
2023-04-11T04:24:29.366Z,9.32
2023-04-11T04:25:29.371Z,9.32
2023-04-11T04:26:29.346Z,9.34
2023-04-11T04:27:29.350Z,9.32
2023-04-11T04:28:29.319Z,9.31
2023-04-11T04:29:29.329Z,9.26
2023-04-11T04:30:29.326Z,9.20
2023-04-11T04:31:29.334Z,9.22
2023-04-11T04:32:29.315Z,9.17
2023-04-11T04:33:29.268Z,9.08
2023-04-11T04:34:29.319Z,9.06
2023-04-11T04:35:29.275Z,9.06
2023-04-11T04:36:29.257Z,9.03
2023-04-11T04:37:29.242Z,9.04
2023-04-11T04:38:29.206Z,9.04
2023-04-11T04:39:29.201Z,9.04
2023-04-11T04:40:29.199Z,9.01
2023-04-11T04:41:29.206Z,9.00
2023-04-11T04:42:29.170Z,9.01
2023-04-11T04:43:29.155Z,9.01
2023-04-11T04:44:29.169Z,8.97
2023-04-11T04:45:29.183Z,8.97
2023-04-11T04:46:29.123Z,8.94
2023-04-11T04:47:29.155Z,8.91
2023-04-11T04:48:29.095Z,8.93
2023-04-11T04:49:29.099Z,8.97
2023-04-11T04:50:29.070Z,8.97
2023-04-11T04:51:29.074Z,8.98
2023-04-11T04:52:29.075Z,8.97
2023-04-11T04:53:29.035Z,8.96
2023-04-11T04:54:29.033Z,8.96
2023-04-11T04:55:29.027Z,8.89
2023-04-11T04:56:29.003Z,8.88
2023-04-11T04:57:29.004Z,8.86
2023-04-11T04:58:29.024Z,8.80
2023-04-11T04:59:28.997Z,8.79
2023-04-11T05:00:28.963Z,8.73
2023-04-11T05:01:28.981Z,8.70
2023-04-11T05:02:29.138Z,8.61
2023-04-11T05:03:29.114Z,8.54
2023-04-11T05:04:28.970Z,8.46
2023-04-11T05:05:28.942Z,8.36
2023-04-11T05:06:28.890Z,8.31
2023-04-11T05:07:28.910Z,8.32
2023-04-11T05:08:28.880Z,8.25
2023-04-11T05:09:28.861Z,8.17
2023-04-11T05:10:29.294Z,8.20
2023-04-11T05:11:28.850Z,8.17
2023-04-11T05:12:28.820Z,8.13
2023-04-11T05:13:28.870Z,8.02
2023-04-11T05:14:28.797Z,7.73
2023-04-11T05:15:28.795Z,7.60
2023-04-11T05:16:28.863Z,7.58
2023-04-11T05:17:28.824Z,7.44
2023-04-11T05:18:28.768Z,7.36
2023-04-11T05:19:28.793Z,7.24
2023-04-11T05:20:28.739Z,7.15
2023-04-11T05:21:28.761Z,7.09
2023-04-11T05:22:28.710Z,7.08
2023-04-11T05:23:28.740Z,7.05
2023-04-11T05:24:28.699Z,6.99
2023-04-11T05:25:28.692Z,6.93
2023-04-11T05:26:28.685Z,6.91
2023-04-11T05:27:28.683Z,6.91
2023-04-11T05:28:28.649Z,6.89
2023-04-11T05:29:28.719Z,6.87
2023-04-11T05:30:28.652Z,6.90
2023-04-11T05:31:28.633Z,6.96
2023-04-11T05:32:28.661Z,6.87
2023-04-11T05:33:28.597Z,6.87
2023-04-11T05:34:28.567Z,6.93
2023-04-11T05:35:28.598Z,7.00
2023-04-11T05:36:28.542Z,7.05
2023-04-11T05:37:28.541Z,7.09
2023-04-11T05:38:28.551Z,7.16
2023-04-11T05:39:28.518Z,7.15
2023-04-11T05:40:28.505Z,7.16
2023-04-11T05:41:28.498Z,7.16
2023-04-11T05:42:28.485Z,7.24
2023-04-11T05:43:29.691Z,7.30
2023-04-11T05:46:33.659Z,7.50
2023-04-11T05:47:34.540Z,7.52
2023-04-11T05:48:34.516Z,7.62
2023-04-11T05:49:34.524Z,7.67
2023-04-11T05:50:34.504Z,7.67
2023-04-11T05:51:34.478Z,7.70
2023-04-11T05:52:34.478Z,7.67
2023-04-11T05:53:34.465Z,7.73
2023-04-11T05:54:34.448Z,7.76
2023-04-11T05:55:34.452Z,7.79
2023-04-11T05:56:34.426Z,7.81
2023-04-11T05:57:34.421Z,7.82
2023-04-11T05:58:34.404Z,7.85
2023-04-11T05:59:34.384Z,7.86
2023-04-11T06:00:34.401Z,7.89
2023-04-11T06:01:34.393Z,7.88
2023-04-11T06:02:34.493Z,7.77
2023-04-11T06:03:34.469Z,7.69
2023-04-11T06:04:34.615Z,7.60
2023-04-11T06:05:34.316Z,7.60
2023-04-11T06:06:34.337Z,7.69
2023-04-11T06:07:34.296Z,7.62
2023-04-11T06:08:34.308Z,7.62
2023-04-11T06:09:34.342Z,7.67
2023-04-11T06:10:34.283Z,7.71
2023-04-11T06:11:34.278Z,7.71
2023-04-11T06:12:34.250Z,7.74
2023-04-11T06:13:34.241Z,7.81
2023-04-11T06:14:34.228Z,7.82
2023-04-11T06:15:34.292Z,7.74
2023-04-11T06:16:34.230Z,7.79
2023-04-11T06:17:34.221Z,7.71
2023-04-11T06:18:34.191Z,7.74
2023-04-11T06:19:34.180Z,7.73
2023-04-11T06:20:34.168Z,7.73
2023-04-11T06:21:34.153Z,7.74
2023-04-11T06:22:34.163Z,7.84
2023-04-11T06:23:34.120Z,7.82
2023-04-11T06:24:34.122Z,7.91
2023-04-11T06:25:34.099Z,7.96
2023-04-11T06:26:34.093Z,7.96
2023-04-11T06:27:34.087Z,8.02
2023-04-11T06:28:34.098Z,8.09
2023-04-11T06:29:34.058Z,8.10
2023-04-11T06:30:34.042Z,8.21
2023-04-11T06:31:34.189Z,8.25
2023-04-11T06:32:34.076Z,8.28
2023-04-11T06:33:34.032Z,8.31
2023-04-11T06:34:34.052Z,8.32
2023-04-11T06:35:34.048Z,8.37
2023-04-11T06:36:34.026Z,8.32
2023-04-11T06:37:33.974Z,8.36
2023-04-11T06:38:33.981Z,8.39
2023-04-11T06:39:34.009Z,8.39
2023-04-11T06:40:33.972Z,8.40
2023-04-11T06:41:33.926Z,8.40
2023-04-11T06:42:33.958Z,8.37
2023-04-11T06:43:33.936Z,8.42
2023-04-11T06:44:33.926Z,8.42
2023-04-11T06:45:33.906Z,8.46
2023-04-11T06:46:33.875Z,8.49
2023-04-11T06:47:33.908Z,8.49
2023-04-11T06:48:33.860Z,8.50
2023-04-11T06:49:33.880Z,8.49
2023-04-11T06:50:33.827Z,8.31
2023-04-11T06:51:33.828Z,7.94
2023-04-11T06:52:33.830Z,7.74
2023-04-11T06:53:33.794Z,7.71
2023-04-11T06:54:33.791Z,7.63
2023-04-11T06:55:33.779Z,7.62
2023-04-11T06:56:33.796Z,7.60
2023-04-11T06:57:33.742Z,7.63
2023-04-11T06:58:33.745Z,7.70
2023-04-11T06:59:33.729Z,7.74
2023-04-11T07:00:33.720Z,7.74
2023-04-11T07:01:33.749Z,7.73
2023-04-11T07:02:33.958Z,7.77
2023-04-11T07:03:33.789Z,7.81
2023-04-11T07:04:33.807Z,7.85
2023-04-11T07:05:33.656Z,7.88
2023-04-11T07:06:33.700Z,7.92
2023-04-11T07:07:33.637Z,8.00
2023-04-11T07:08:33.662Z,8.03
2023-04-11T07:09:33.616Z,8.07
2023-04-11T07:10:33.646Z,8.13
2023-04-11T07:11:33.586Z,8.13
2023-04-11T07:12:33.588Z,8.14
2023-04-11T07:13:33.567Z,8.24
2023-04-11T07:14:33.585Z,8.34
2023-04-11T07:15:33.550Z,8.40
2023-04-11T07:16:33.593Z,8.55
2023-04-11T07:17:33.636Z,8.67
2023-04-11T07:18:33.540Z,8.83
2023-04-11T07:19:33.552Z,8.96
2023-04-11T07:20:33.514Z,9.01
2023-04-11T07:21:33.509Z,9.01
2023-04-11T07:22:33.466Z,8.98
2023-04-11T07:23:33.470Z,8.96
2023-04-11T07:24:33.445Z,8.94
2023-04-11T07:25:33.465Z,8.98
2023-04-11T07:26:33.425Z,9.01
2023-04-11T07:27:33.418Z,9.06
2023-04-11T07:28:33.396Z,9.10
2023-04-11T07:29:33.399Z,9.10
2023-04-11T07:30:33.443Z,9.06
2023-04-11T07:31:33.403Z,9.10
2023-04-11T07:32:33.415Z,9.04
2023-04-11T07:33:33.336Z,9.01
2023-04-11T07:34:33.356Z,9.04
2023-04-11T07:35:33.364Z,9.15
2023-04-11T07:36:33.376Z,9.19
2023-04-11T07:37:33.293Z,9.13
2023-04-11T07:38:33.318Z,9.19
2023-04-11T07:39:33.285Z,9.22
2023-04-11T07:40:33.262Z,9.20
2023-04-11T07:41:33.292Z,9.37
2023-04-11T07:42:33.258Z,9.37
2023-04-11T07:43:33.245Z,9.52
2023-04-11T07:44:33.224Z,9.60
2023-04-11T07:45:33.281Z,9.71
2023-04-11T07:46:33.203Z,9.88
2023-04-11T07:47:33.277Z,9.68
2023-04-11T07:48:33.181Z,9.56
2023-04-11T07:49:33.170Z,9.75
2023-04-11T07:50:33.154Z,9.77
2023-04-11T07:51:33.148Z,9.63
2023-04-11T07:52:33.147Z,9.60
2023-04-11T07:53:33.186Z,9.77
2023-04-11T07:54:33.126Z,10.02
2023-04-11T07:55:33.101Z,10.28
2023-04-11T07:56:33.099Z,10.38
2023-04-11T07:57:33.072Z,10.32
2023-04-11T07:58:33.073Z,10.22
2023-04-11T07:59:33.077Z,10.07
2023-04-11T08:00:33.055Z,9.99
2023-04-11T08:01:33.047Z,9.93
2023-04-11T08:02:33.424Z,9.99
2023-04-11T08:03:33.182Z,9.99
2023-04-11T08:04:33.156Z,10.06
2023-04-11T08:05:33.036Z,10.06
2023-04-11T08:06:32.980Z,10.10
2023-04-11T08:07:32.963Z,10.13
2023-04-11T08:08:32.954Z,10.10
2023-04-11T08:09:32.943Z,10.36
2023-04-11T08:10:32.937Z,10.32
2023-04-11T08:11:32.941Z,10.42
2023-04-11T08:12:32.918Z,10.35
2023-04-11T08:13:32.889Z,10.34
2023-04-11T08:14:32.915Z,10.39
2023-04-11T08:15:32.887Z,10.46
2023-04-11T08:16:32.923Z,10.34
2023-04-11T08:17:33.121Z,10.43
2023-04-11T08:18:32.842Z,10.58
2023-04-11T08:19:32.829Z,10.68
2023-04-11T08:20:32.817Z,10.55
2023-04-11T08:21:32.812Z,10.34
2023-04-11T08:22:32.851Z,10.47
2023-04-11T08:23:32.792Z,10.43
2023-04-11T08:24:32.784Z,10.47
2023-04-11T08:25:32.760Z,10.38
2023-04-11T08:26:32.752Z,10.39
2023-04-11T08:27:32.747Z,10.54
2023-04-11T08:28:32.761Z,10.66
2023-04-11T08:29:32.744Z,10.70
2023-04-11T08:30:32.731Z,10.94
2023-04-11T08:31:32.696Z,11.02
2023-04-11T08:32:32.730Z,11.13
2023-04-11T08:33:32.667Z,11.06
2023-04-11T08:34:32.715Z,11.21
2023-04-11T08:35:32.680Z,11.08
2023-04-11T08:36:32.659Z,10.83
2023-04-11T08:37:32.643Z,10.86
2023-04-11T08:38:32.633Z,11.11
2023-04-11T08:39:32.606Z,11.12
2023-04-11T08:40:32.648Z,11.02
2023-04-11T08:41:32.590Z,10.87
2023-04-11T08:42:32.574Z,10.72
2023-04-11T08:43:32.560Z,10.68
2023-04-11T08:44:32.554Z,10.76
2023-04-11T08:45:32.544Z,10.69
2023-04-11T08:46:32.584Z,10.76
2023-04-11T08:47:32.543Z,10.69
2023-04-11T08:48:32.572Z,10.72
2023-04-11T08:49:32.494Z,10.66
2023-04-11T08:50:32.492Z,10.68
2023-04-11T08:51:32.471Z,10.68
2023-04-11T08:52:32.537Z,11.01
2023-04-11T08:53:32.451Z,10.94
2023-04-11T08:54:32.453Z,11.02
2023-04-11T08:55:32.428Z,10.91
2023-04-11T08:56:32.416Z,10.86
2023-04-11T08:57:32.427Z,10.98
2023-04-11T08:58:32.429Z,11.17
2023-04-11T08:59:32.382Z,11.44
2023-04-11T09:00:32.634Z,11.56
2023-04-11T09:01:32.702Z,11.64
2023-04-11T09:02:32.402Z,11.85
2023-04-11T09:03:32.395Z,11.96
2023-04-11T09:04:32.316Z,12.01
2023-04-11T09:05:32.309Z,11.93
2023-04-11T09:06:32.304Z,11.56
2023-04-11T09:07:32.304Z,11.36
2023-04-11T09:08:32.281Z,11.45
2023-04-11T09:09:32.284Z,11.57
2023-04-11T09:10:32.263Z,11.57
2023-04-11T09:11:32.336Z,11.38
2023-04-11T09:12:32.239Z,11.24
2023-04-11T09:13:32.224Z,11.21
2023-04-11T09:14:32.619Z,11.13
2023-04-11T09:15:32.228Z,10.95
2023-04-11T09:16:32.201Z,10.91
2023-04-11T09:17:32.214Z,11.06
2023-04-11T09:18:32.173Z,11.28
2023-04-11T09:19:32.159Z,11.41
2023-04-11T09:20:32.168Z,11.33
2023-04-11T09:21:32.496Z,11.62
2023-04-11T09:22:32.120Z,11.77
2023-04-11T09:23:32.109Z,11.67
2023-04-11T09:24:34.006Z,11.46
2023-04-11T09:25:32.117Z,11.48
2023-04-11T09:26:32.077Z,11.36
2023-04-11T09:27:32.067Z,11.41
2023-04-11T09:28:32.056Z,11.24
2023-04-11T09:29:32.050Z,11.11
2023-04-11T09:30:32.051Z,11.09
2023-04-11T09:31:32.060Z,11.27
2023-04-11T09:32:34.641Z,11.56
2023-04-11T09:33:32.012Z,11.82
2023-04-11T09:34:31.988Z,12.11
2023-04-11T09:35:32.049Z,12.29
2023-04-11T09:36:31.977Z,12.11
2023-04-11T09:37:31.954Z,11.97
2023-04-11T09:38:31.973Z,12.03
2023-04-11T09:39:31.936Z,12.04
2023-04-11T09:40:31.972Z,11.77
2023-04-11T09:41:31.912Z,11.59
2023-04-11T09:42:31.899Z,11.41
2023-04-11T09:43:31.899Z,11.26
2023-04-11T09:44:31.875Z,11.24
2023-04-11T09:45:38.117Z,11.23
2023-04-11T09:46:31.887Z,11.20
2023-04-11T09:47:31.895Z,11.28
2023-04-11T09:48:45.511Z,11.12
2023-04-11T09:49:31.854Z,10.93
2023-04-11T09:50:31.824Z,10.98
2023-04-11T09:51:35.959Z,11.02
2023-04-11T09:52:31.795Z,11.28
2023-04-11T09:53:31.773Z,11.38
2023-04-11T09:54:31.757Z,11.45
2023-04-11T09:55:31.780Z,11.63
2023-04-11T09:56:31.785Z,11.85
2023-04-11T09:57:31.734Z,12.11
2023-04-11T09:58:31.718Z,12.31
2023-04-11T09:59:31.709Z,12.52
2023-04-11T10:00:31.723Z,12.79
2023-04-11T10:01:31.707Z,12.81
2023-04-11T10:02:31.803Z,13.06
2023-04-11T10:03:31.677Z,13.13
2023-04-11T10:04:31.688Z,13.01
2023-04-11T10:05:31.678Z,12.70
2023-04-11T10:06:31.932Z,12.40
2023-04-11T10:07:31.625Z,12.11
2023-04-11T10:08:31.601Z,11.93
2023-04-11T10:09:31.607Z,11.69
2023-04-11T10:10:31.653Z,11.67
2023-04-11T10:11:31.582Z,11.64
2023-04-11T10:12:31.582Z,11.64
2023-04-11T10:13:31.549Z,11.49
2023-04-11T10:14:31.552Z,11.62
2023-04-11T10:15:31.552Z,11.87
2023-04-11T10:16:31.542Z,12.15
2023-04-11T10:17:31.534Z,12.43
2023-04-11T10:18:31.496Z,12.70
2023-04-11T10:19:31.495Z,12.91
2023-04-11T10:20:31.500Z,12.96
2023-04-11T10:21:31.460Z,12.77
2023-04-11T10:22:31.444Z,12.95
2023-04-11T10:23:31.446Z,12.95
2023-04-11T10:24:31.429Z,12.77
2023-04-11T10:25:31.453Z,12.84
2023-04-11T10:26:31.411Z,13.10
2023-04-11T10:27:31.399Z,13.03
2023-04-11T10:28:31.379Z,12.91
2023-04-11T10:29:31.395Z,12.87
2023-04-11T10:30:31.381Z,12.96
2023-04-11T10:31:31.457Z,13.04
2023-04-11T10:32:31.382Z,12.88
2023-04-11T10:33:31.348Z,13.03
2023-04-11T10:34:31.323Z,13.12
2023-04-11T10:35:31.357Z,13.16
2023-04-11T10:36:31.294Z,13.31
2023-04-11T10:37:31.292Z,13.36
2023-04-11T10:38:31.274Z,13.27
2023-04-11T10:39:31.270Z,13.03
2023-04-11T10:40:31.281Z,13.24
2023-04-11T10:41:31.250Z,13.24
2023-04-11T10:42:31.227Z,13.29
2023-04-11T10:43:31.248Z,13.13
2023-04-11T10:44:31.205Z,13.10
2023-04-11T10:45:31.221Z,13.35
2023-04-11T10:46:31.231Z,13.19
2023-04-11T10:47:31.220Z,13.09
2023-04-11T10:48:31.158Z,12.85
2023-04-11T10:49:31.154Z,12.70
2023-04-11T10:50:31.158Z,12.87
2023-04-11T10:51:31.134Z,13.03
2023-04-11T10:52:31.113Z,12.69
2023-04-11T10:53:31.110Z,12.66
2023-04-11T10:54:31.109Z,13.06
2023-04-11T10:55:31.103Z,13.28
2023-04-11T10:56:31.073Z,13.22
2023-04-11T10:57:31.059Z,13.19
2023-04-11T10:58:31.053Z,13.50
2023-04-11T10:59:31.066Z,13.50
2023-04-11T11:00:32.649Z,13.35
2023-04-11T11:01:37.161Z,13.54
2023-04-11T11:02:31.130Z,14.02
2023-04-11T11:03:31.133Z,14.11
2023-04-11T11:04:31.023Z,13.86
2023-04-11T11:05:30.985Z,13.61
2023-04-11T11:06:30.953Z,13.47
2023-04-11T11:07:30.951Z,13.31
2023-04-11T11:08:30.955Z,13.01
2023-04-11T11:09:30.927Z,12.88
2023-04-11T11:10:30.923Z,12.96
2023-04-11T11:11:30.900Z,13.06
2023-04-11T11:12:30.880Z,13.21
2023-04-11T11:13:30.882Z,13.19
2023-04-11T11:14:30.859Z,13.22
2023-04-11T11:15:30.874Z,13.13
2023-04-11T11:16:30.854Z,12.96
2023-04-11T11:17:30.878Z,13.17
2023-04-11T11:18:30.819Z,13.46
2023-04-11T11:19:30.811Z,13.14
2023-04-11T11:20:30.810Z,12.84
2023-04-11T11:21:30.784Z,12.77
2023-04-11T11:22:30.781Z,12.66
2023-04-11T11:23:30.765Z,12.49
2023-04-11T11:24:30.761Z,12.59
2023-04-11T11:25:30.763Z,12.88
2023-04-11T11:26:30.728Z,12.98
2023-04-11T11:27:30.717Z,13.13
2023-04-11T11:28:30.707Z,13.28
2023-04-11T11:29:30.693Z,13.35
2023-04-11T11:30:30.714Z,13.62
2023-04-11T11:31:30.698Z,13.88
2023-04-11T11:32:30.677Z,14.11
2023-04-11T11:33:30.667Z,14.12
2023-04-11T11:34:30.640Z,14.38
2023-04-11T11:35:30.660Z,14.34
2023-04-11T11:36:30.623Z,14.13
2023-04-11T11:37:30.609Z,13.98
2023-04-11T11:38:30.613Z,13.99
2023-04-11T11:39:30.582Z,14.23
2023-04-11T11:40:30.593Z,14.16
2023-04-11T11:41:30.558Z,14.54
2023-04-11T11:42:30.561Z,14.78
2023-04-11T11:43:30.534Z,14.93
2023-04-11T11:44:30.525Z,14.91
2023-04-11T11:45:30.548Z,15.13
2023-04-11T11:46:30.551Z,14.59
2023-04-11T11:47:30.522Z,14.31
2023-04-11T11:48:30.471Z,14.56
2023-04-11T11:49:30.467Z,14.71
2023-04-11T11:50:30.474Z,14.78
2023-04-11T11:51:30.453Z,14.94
2023-04-11T11:52:30.433Z,14.69
2023-04-11T11:53:30.428Z,15.03
2023-04-11T11:54:30.411Z,14.94
2023-04-11T11:55:30.421Z,14.71
2023-04-11T11:56:30.395Z,14.64
2023-04-11T11:57:30.377Z,14.74
2023-04-11T11:58:30.380Z,14.95
2023-04-11T11:59:30.358Z,14.74
2023-04-11T12:00:30.372Z,14.71
2023-04-11T12:01:30.338Z,14.74
2023-04-11T12:02:30.500Z,14.95
2023-04-11T12:03:30.445Z,15.33
2023-04-11T12:04:30.539Z,15.28
2023-04-11T12:05:30.914Z,14.94
2023-04-11T12:06:30.276Z,14.57
2023-04-11T12:07:30.269Z,14.24
2023-04-11T12:08:30.265Z,14.16
2023-04-11T12:09:30.243Z,14.16
2023-04-11T12:10:30.255Z,14.35
2023-04-11T12:11:30.228Z,14.45
2023-04-11T12:12:30.237Z,14.38
2023-04-11T12:13:30.199Z,14.54
2023-04-11T12:14:30.185Z,14.78
2023-04-11T12:15:30.201Z,14.82
2023-04-11T12:16:30.285Z,14.69
2023-04-11T12:17:30.202Z,14.52
2023-04-11T12:18:30.148Z,14.57
2023-04-11T12:19:30.138Z,14.53
2023-04-11T12:20:30.149Z,14.41
2023-04-11T12:21:30.114Z,14.21
2023-04-11T12:22:30.110Z,14.08
2023-04-11T12:23:30.110Z,14.12
2023-04-11T12:24:30.076Z,14.17
2023-04-11T12:25:30.115Z,13.98
2023-04-11T12:26:30.061Z,13.88
2023-04-11T12:27:30.051Z,13.71
2023-04-11T12:28:30.034Z,13.65
2023-04-11T12:29:30.037Z,13.59
2023-04-11T12:30:30.267Z,13.47
2023-04-11T12:31:30.093Z,13.44
2023-04-11T12:32:30.003Z,13.43
2023-04-11T12:33:29.982Z,13.25
2023-04-11T12:34:29.964Z,13.16
2023-04-11T12:35:29.975Z,13.04
2023-04-11T12:36:30.071Z,12.95
2023-04-11T12:37:29.940Z,12.96
2023-04-11T12:38:29.920Z,12.96
2023-04-11T12:39:29.913Z,12.87
2023-04-11T12:40:30.002Z,13.04
2023-04-11T12:41:32.617Z,13.10
2023-04-11T12:42:29.874Z,13.25
2023-04-11T12:43:29.869Z,13.41
2023-04-11T12:44:29.861Z,13.39
2023-04-11T12:45:29.896Z,13.38
2023-04-11T12:46:29.850Z,13.47
2023-04-11T12:47:29.910Z,13.66
2023-04-11T12:48:29.841Z,13.98
2023-04-11T12:49:29.797Z,14.39
2023-04-11T12:50:29.800Z,14.82
2023-04-11T12:51:29.782Z,14.80
2023-04-11T12:52:29.754Z,14.97
2023-04-11T12:53:29.755Z,15.07
2023-04-11T12:54:29.735Z,15.07
2023-04-11T12:55:30.060Z,15.09
2023-04-11T12:56:29.710Z,14.86
2023-04-11T12:57:29.704Z,14.56
2023-04-11T12:58:29.710Z,14.12
2023-04-11T12:59:30.727Z,13.71
2023-04-11T13:00:29.698Z,13.47
2023-04-11T13:01:29.685Z,13.65
2023-04-11T13:02:35.405Z,13.61
2023-04-11T13:03:29.858Z,13.72
2023-04-11T13:04:29.688Z,14.17
2023-04-11T13:05:29.654Z,14.36
2023-04-11T13:06:29.605Z,14.46